sensor_id;sensor_type;location;lat;lon;timestamp;pressure;altitude;pressure_sealevel;temperature;humidity
70900;BME280;67902;52.154;5.430;2023-12-20T00:01:02;101677.50;;;5.68;100.00
70900;BME280;67902;52.154;5.430;2023-12-20T00:03:29;101658.91;;;5.66;100.00
70900;BME280;67902;52.154;5.430;2023-12-20T00:06:07;101663.44;;;5.66;100.00
70900;BME280;67902;52.154;5.430;2023-12-20T00:08:34;101658.66;;;5.61;100.00
70900;BME280;67902;52.154;5.430;2023-12-20T00:11:01;101660.66;;;5.59;100.00
70900;BME280;67902;52.154;5.430;2023-12-20T00:13:27;101661.72;;;5.58;100.00
70900;BME280;67902;52.154;5.430;2023-12-20T00:15:54;101656.25;;;5.52;100.00
70900;BME280;67902;52.154;5.430;2023-12-20T00:18:20;101651.47;;;5.47;100.00
70900;BME280;67902;52.154;5.430;2023-12-20T00:20:46;101662.59;;;5.44;100.00
70900;BME280;67902;52.154;5.430;2023-12-20T00:23:13;101657.22;;;5.44;100.00
70900;BME280;67902;52.154;5.430;2023-12-20T00:25:39;101659.44;;;5.41;100.00
70900;BME280;67902;52.154;5.430;2023-12-20T00:28:06;101653.63;;;5.37;100.00
70900;BME280;67902;52.154;5.430;2023-12-20T00:30:33;101643.72;;;5.38;100.00
70900;BME280;67902;52.154;5.430;2023-12-20T00:32:59;101647.88;;;5.40;100.00
70900;BME280;67902;52.154;5.430;2023-12-20T00:35:26;101657.78;;;5.40;100.00
70900;BME280;67902;52.154;5.430;2023-12-20T00:37:53;101653.63;;;5.37;100.00
70900;BME280;67902;52.154;5.430;2023-12-20T00:40:19;101658.09;;;5.30;100.00
70900;BME280;67902;52.154;5.430;2023-12-20T00:42:47;101656.88;;;5.33;100.00
70900;BME280;67902;52.154;5.430;2023-12-20T00:45:14;101658.09;;;5.30;100.00
70900;BME280;67902;52.154;5.430;2023-12-20T00:47:41;101656.44;;;5.29;100.00
70900;BME280;67902;52.154;5.430;2023-12-20T00:50:08;101656.44;;;5.29;100.00
70900;BME280;67902;52.154;5.430;2023-12-20T00:52:35;101648.75;;;5.26;100.00
70900;BME280;67902;52.154;5.430;2023-12-20T00:55:02;101649.75;;;5.25;100.00
70900;BME280;67902;52.154;5.430;2023-12-20T00:57:30;101654.31;;;5.24;100.00
70900;BME280;67902;52.154;5.430;2023-12-20T00:59:57;101653.84;;;5.21;100.00
70900;BME280;67902;52.154;5.430;2023-12-20T01:02:24;101657.81;;;5.25;100.00
70900;BME280;67902;52.154;5.430;2023-12-20T01:04:50;101649.31;;;5.21;100.00
70900;BME280;67902;52.154;5.430;2023-12-20T01:07:17;101645.16;;;5.19;100.00
70900;BME280;67902;52.154;5.430;2023-12-20T01:09:44;101636.81;;;5.14;100.00
70900;BME280;67902;52.154;5.430;2023-12-20T01:12:10;101629.44;;;5.16;100.00
70900;BME280;67902;52.154;5.430;2023-12-20T01:14:37;101635.44;;;5.18;100.00
70900;BME280;67902;52.154;5.430;2023-12-20T01:17:03;101635.19;;;5.13;100.00
70900;BME280;67902;52.154;5.430;2023-12-20T01:19:30;101629.34;;;5.09;100.00
70900;BME280;67902;52.154;5.430;2023-12-20T01:21:57;101642.56;;;5.11;100.00
70900;BME280;67902;52.154;5.430;2023-12-20T01:24:23;101643.63;;;5.10;100.00
70900;BME280;67902;52.154;5.430;2023-12-20T01:26:50;101656.66;;;5.13;100.00
70900;BME280;67902;52.154;5.430;2023-12-20T01:29:16;101661.28;;;5.19;100.00
70900;BME280;67902;52.154;5.430;2023-12-20T01:31:43;101667.53;;;5.26;100.00
70900;BME280;67902;52.154;5.430;2023-12-20T01:34:09;101661.03;;;5.35;100.00
70900;BME280;67902;52.154;5.430;2023-12-20T01:36:36;101661.69;;;5.37;100.00
70900;BME280;67902;52.154;5.430;2023-12-20T01:39:03;101664.91;;;5.47;100.00
70900;BME280;67902;52.154;5.430;2023-12-20T01:41:38;101656.63;;;5.49;100.00
70900;BME280;67902;52.154;5.430;2023-12-20T01:44:04;101660.16;;;5.49;100.00
70900;BME280;67902;52.154;5.430;2023-12-20T01:46:31;101653.38;;;5.53;100.00
70900;BME280;67902;52.154;5.430;2023-12-20T01:48:57;101640.97;;;5.52;100.00
70900;BME280;67902;52.154;5.430;2023-12-20T01:51:25;101640.41;;;5.57;100.00
70900;BME280;67902;52.154;5.430;2023-12-20T01:53:55;101635.47;;;5.60;100.00
70900;BME280;67902;52.154;5.430;2023-12-20T01:56:23;101640.09;;;5.66;100.00
70900;BME280;67902;52.154;5.430;2023-12-20T01:58:50;101648.53;;;5.63;100.00
70900;BME280;67902;52.154;5.430;2023-12-20T02:01:16;101639.38;;;5.58;100.00
70900;BME280;67902;52.154;5.430;2023-12-20T02:03:43;101636.88;;;5.56;100.00
70900;BME280;67902;52.154;5.430;2023-12-20T02:06:10;101651.72;;;5.52;100.00
70900;BME280;67902;52.154;5.430;2023-12-20T02:08:38;101647.38;;;5.51;100.00
70900;BME280;67902;52.154;5.430;2023-12-20T02:11:04;101643.00;;;5.50;100.00
70900;BME280;67902;52.154;5.430;2023-12-20T02:13:31;101642.84;;;5.52;100.00
70900;BME280;67902;52.154;5.430;2023-12-20T02:15:59;101641.63;;;5.54;100.00
70900;BME280;67902;52.154;5.430;2023-12-20T02:18:26;101631.31;;;5.58;100.00
70900;BME280;67902;52.154;5.430;2023-12-20T02:20:53;101626.84;;;5.65;100.00
70900;BME280;67902;52.154;5.430;2023-12-20T02:23:19;101634.59;;;5.74;100.00
70900;BME280;67902;52.154;5.430;2023-12-20T02:25:46;101629.84;;;5.76;100.00
70900;BME280;67902;52.154;5.430;2023-12-20T02:28:13;101636.22;;;5.75;100.00
70900;BME280;67902;52.154;5.430;2023-12-20T02:30:39;101631.28;;;5.72;100.00
70900;BME280;67902;52.154;5.430;2023-12-20T02:33:10;101626.28;;;5.69;100.00
70900;BME280;67902;52.154;5.430;2023-12-20T02:35:38;101627.28;;;5.68;100.00
70900;BME280;67902;52.154;5.430;2023-12-20T02:38:04;101624.59;;;5.68;100.00
70900;BME280;67902;52.154;5.430;2023-12-20T02:40:31;101624.59;;;5.68;100.00
70900;BME280;67902;52.154;5.430;2023-12-20T02:42:58;101629.59;;;5.71;100.00
70900;BME280;67902;52.154;5.430;2023-12-20T02:45:26;101617.84;;;5.72;100.00
70900;BME280;67902;52.154;5.430;2023-12-20T02:47:53;101616.41;;;5.76;100.00
70900;BME280;67902;52.154;5.430;2023-12-20T02:50:19;101614.34;;;5.78;100.00
70900;BME280;67902;52.154;5.430;2023-12-20T02:52:46;101610.66;;;5.79;100.00
70900;BME280;67902;52.154;5.430;2023-12-20T02:55:13;101609.81;;;5.79;100.00
70900;BME280;67902;52.154;5.430;2023-12-20T02:57:39;101610.66;;;5.79;100.00
70900;BME280;67902;52.154;5.430;2023-12-20T03:00:09;101604.81;;;5.76;100.00
70900;BME280;67902;52.154;5.430;2023-12-20T03:02:37;101603.34;;;5.73;100.00
70900;BME280;67902;52.154;5.430;2023-12-20T03:05:03;101595.69;;;5.70;100.00
70900;BME280;67902;52.154;5.430;2023-12-20T03:07:30;101612.84;;;5.69;100.00
70900;BME280;67902;52.154;5.430;2023-12-20T03:09:57;101601.50;;;5.74;100.00
70900;BME280;67902;52.154;5.430;2023-12-20T03:12:43;101604.69;;;5.84;100.00
70900;BME280;67902;52.154;5.430;2023-12-20T03:15:10;101596.91;;;5.89;100.00
70900;BME280;67902;52.154;5.430;2023-12-20T03:17:36;101594.03;;;5.91;100.00
70900;BME280;67902;52.154;5.430;2023-12-20T03:20:03;101601.06;;;5.92;100.00
70900;BME280;67902;52.154;5.430;2023-12-20T03:22:30;101599.00;;;5.94;100.00
70900;BME280;67902;52.154;5.430;2023-12-20T03:24:57;101589.28;;;5.93;100.00
70900;BME280;67902;52.154;5.430;2023-12-20T03:27:23;101584.09;;;5.91;100.00
70900;BME280;67902;52.154;5.430;2023-12-20T03:29:50;101575.66;;;5.94;100.00
70900;BME280;67902;52.154;5.430;2023-12-20T03:32:16;101581.03;;;5.94;100.00
70900;BME280;67902;52.154;5.430;2023-12-20T03:34:43;101590.72;;;5.89;100.00
70900;BME280;67902;52.154;5.430;2023-12-20T03:37:10;101584.69;;;5.87;100.00
70900;BME280;67902;52.154;5.430;2023-12-20T03:39:36;101586.97;;;5.90;100.00
70900;BME280;67902;52.154;5.430;2023-12-20T03:42:03;101587.25;;;5.95;100.00
70900;BME280;67902;52.154;5.430;2023-12-20T03:44:30;101586.03;;;5.97;100.00
70900;BME280;67902;52.154;5.430;2023-12-20T03:46:56;101581.91;;;6.01;100.00
70900;BME280;67902;52.154;5.430;2023-12-20T03:49:22;101587.31;;;6.08;100.00
70900;BME280;67902;52.154;5.430;2023-12-20T03:51:49;101586.03;;;6.04;100.00
70900;BME280;67902;52.154;5.430;2023-12-20T03:54:15;101593.03;;;5.98;100.00
70900;BME280;67902;52.154;5.430;2023-12-20T03:56:42;101583.50;;;5.96;100.00
70900;BME280;67902;52.154;5.430;2023-12-20T03:59:08;101583.50;;;5.96;100.00
70900;BME280;67902;52.154;5.430;2023-12-20T04:01:35;101579.81;;;5.97;100.00
70900;BME280;67902;52.154;5.430;2023-12-20T04:04:02;101592.22;;;5.98;100.00
70900;BME280;67902;52.154;5.430;2023-12-20T04:06:29;101582.28;;;5.98;100.00
70900;BME280;67902;52.154;5.430;2023-12-20T04:08:56;101586.84;;;5.98;100.00
70900;BME280;67902;52.154;5.430;2023-12-20T04:11:22;101586.44;;;6.01;100.00
70900;BME280;67902;52.154;5.430;2023-12-20T04:13:48;101587.72;;;6.05;100.00
70900;BME280;67902;52.154;5.430;2023-12-20T04:16:15;101579.09;;;6.16;100.00
70900;BME280;67902;52.154;5.430;2023-12-20T04:18:41;101564.66;;;6.17;100.00
70900;BME280;67902;52.154;5.430;2023-12-20T04:21:08;101564.66;;;6.17;100.00
70900;BME280;67902;52.154;5.430;2023-12-20T04:23:34;101573.94;;;6.14;100.00
70900;BME280;67902;52.154;5.430;2023-12-20T04:26:01;101573.72;;;6.16;100.00
70900;BME280;67902;52.154;5.430;2023-12-20T04:28:27;101577.03;;;6.18;100.00
70900;BME280;67902;52.154;5.430;2023-12-20T04:30:56;101572.72;;;6.23;100.00
70900;BME280;67902;52.154;5.430;2023-12-20T04:33:23;101582.53;;;6.31;100.00
70900;BME280;67902;52.154;5.430;2023-12-20T04:35:49;101583.78;;;6.35;100.00
70900;BME280;67902;52.154;5.430;2023-12-20T04:38:16;101573.84;;;6.35;100.00
70900;BME280;67902;52.154;5.430;2023-12-20T04:40:42;101578.44;;;6.41;100.00
70900;BME280;67902;52.154;5.430;2023-12-20T04:43:09;101585.91;;;6.46;100.00
70900;BME280;67902;52.154;5.430;2023-12-20T04:45:36;101576.81;;;6.47;100.00
70900;BME280;67902;52.154;5.430;2023-12-20T04:48:03;101569.56;;;6.48;100.00
70900;BME280;67902;52.154;5.430;2023-12-20T04:50:30;101576.03;;;6.53;100.00
70900;BME280;67902;52.154;5.430;2023-12-20T04:52:57;101566.91;;;6.54;100.00
70900;BME280;67902;52.154;5.430;2023-12-20T04:55:23;101560.50;;;6.55;100.00
70900;BME280;67902;52.154;5.430;2023-12-20T04:57:50;101562.78;;;6.58;100.00
70900;BME280;67902;52.154;5.430;2023-12-20T05:00:17;101560.31;;;6.63;100.00
70900;BME280;67902;52.154;5.430;2023-12-20T05:02:43;101553.72;;;6.66;100.00
70900;BME280;67902;52.154;5.430;2023-12-20T05:05:10;101559.53;;;6.69;100.00
70900;BME280;67902;52.154;5.430;2023-12-20T05:07:37;101556.00;;;6.69;100.00
70900;BME280;67902;52.154;5.430;2023-12-20T05:10:04;101564.06;;;6.69;100.00
70900;BME280;67902;52.154;5.430;2023-12-20T05:12:31;101562.44;;;6.68;100.00
70900;BME280;67902;52.154;5.430;2023-12-20T05:14:58;101559.34;;;6.71;100.00
70900;BME280;67902;52.154;5.430;2023-12-20T05:17:24;101559.97;;;6.73;100.00
70900;BME280;67902;52.154;5.430;2023-12-20T05:19:51;101558.72;;;6.75;100.00
70900;BME280;67902;52.154;5.430;2023-12-20T05:22:19;101562.44;;;6.74;100.00
70900;BME280;67902;52.154;5.430;2023-12-20T05:24:46;101560.59;;;6.75;100.00
70900;BME280;67902;52.154;5.430;2023-12-20T05:27:12;101572.81;;;6.77;100.00
70900;BME280;67902;52.154;5.430;2023-12-20T05:29:39;101559.56;;;6.76;100.00
70900;BME280;67902;52.154;5.430;2023-12-20T05:32:06;101566.81;;;6.75;100.00
70900;BME280;67902;52.154;5.430;2023-12-20T05:34:33;101573.63;;;6.78;100.00
70900;BME280;67902;52.154;5.430;2023-12-20T05:36:59;101567.81;;;6.74;100.00
70900;BME280;67902;52.154;5.430;2023-12-20T05:39:27;101572.19;;;6.75;100.00
70900;BME280;67902;52.154;5.430;2023-12-20T05:41:53;101569.50;;;6.75;100.00
70900;BME280;67902;52.154;5.430;2023-12-20T05:44:20;101563.09;;;6.76;100.00
70900;BME280;67902;52.154;5.430;2023-12-20T05:46:46;101552.72;;;6.80;100.00
70900;BME280;67902;52.154;5.430;2023-12-20T05:49:13;101563.50;;;6.80;100.00
70900;BME280;67902;52.154;5.430;2023-12-20T05:51:40;101560.41;;;6.83;100.00
70900;BME280;67902;52.154;5.430;2023-12-20T05:54:09;101553.78;;;6.85;100.00
70900;BME280;67902;52.154;5.430;2023-12-20T05:56:36;101564.56;;;6.85;100.00
70900;BME280;67902;52.154;5.430;2023-12-20T05:59:02;101567.25;;;6.85;100.00
70900;BME280;67902;52.154;5.430;2023-12-20T06:01:29;101558.16;;;6.86;100.00
70900;BME280;67902;52.154;5.430;2023-12-20T06:03:56;101557.53;;;6.84;100.00
70900;BME280;67902;52.154;5.430;2023-12-20T06:06:23;101564.38;;;6.87;100.00
70900;BME280;67902;52.154;5.430;2023-12-20T06:08:50;101558.75;;;6.88;100.00
70900;BME280;67902;52.154;5.430;2023-12-20T06:11:17;101561.28;;;6.90;100.00
70900;BME280;67902;52.154;5.430;2023-12-20T06:13:43;101557.53;;;6.91;100.00
70900;BME280;67902;52.154;5.430;2023-12-20T06:16:10;101550.69;;;6.88;100.00
70900;BME280;67902;52.154;5.430;2023-12-20T06:18:37;101555.06;;;6.89;100.00
70900;BME280;67902;52.154;5.430;2023-12-20T06:21:04;101548.84;;;6.89;100.00
70900;BME280;67902;52.154;5.430;2023-12-20T06:23:30;101548.44;;;6.92;100.00
70900;BME280;67902;52.154;5.430;2023-12-20T06:25:57;101547.81;;;6.96;100.00
70900;BME280;67902;52.154;5.430;2023-12-20T06:28:23;101551.75;;;6.94;100.00
70900;BME280;67902;52.154;5.430;2023-12-20T06:30:50;101541.41;;;6.97;100.00
70900;BME280;67902;52.154;5.430;2023-12-20T06:33:18;101555.88;;;6.96;100.00
70900;BME280;67902;52.154;5.430;2023-12-20T06:35:46;101550.09;;;6.99;100.00
70900;BME280;67902;52.154;5.430;2023-12-20T06:38:12;101547.22;;;7.01;100.00
70900;BME280;67902;52.154;5.430;2023-12-20T06:40:39;101551.78;;;7.00;100.00
70900;BME280;67902;52.154;5.430;2023-12-20T06:43:05;101549.28;;;7.06;100.00
70900;BME280;67902;52.154;5.430;2023-12-20T06:45:46;101547.00;;;7.03;100.00
70900;BME280;67902;52.154;5.430;2023-12-20T06:48:13;101538.09;;;7.02;100.00
70900;BME280;67902;52.154;5.430;2023-12-20T06:50:40;101540.16;;;7.00;100.00
70900;BME280;67902;52.154;5.430;2023-12-20T06:53:06;101540.16;;;7.00;100.00
70900;BME280;67902;52.154;5.430;2023-12-20T06:55:35;101530.25;;;7.07;100.00
70900;BME280;67902;52.154;5.430;2023-12-20T06:58:02;101536.44;;;7.08;100.00
70900;BME280;67902;52.154;5.430;2023-12-20T07:00:30;101536.25;;;7.09;100.00
70900;BME280;67902;52.154;5.430;2023-12-20T07:02:57;101534.00;;;7.13;100.00
70900;BME280;67902;52.154;5.430;2023-12-20T07:05:23;101538.97;;;7.16;100.00
70900;BME280;67902;52.154;5.430;2023-12-20T07:07:50;101537.31;;;7.15;100.00
70900;BME280;67902;52.154;5.430;2023-12-20T07:10:17;101537.72;;;7.18;100.00
70900;BME280;67902;52.154;5.430;2023-12-20T07:12:44;101533.97;;;7.19;100.00
70900;BME280;67902;52.154;5.430;2023-12-20T07:15:10;101543.13;;;7.18;100.00
70900;BME280;67902;52.154;5.430;2023-12-20T07:17:37;101538.13;;;7.22;100.00
70900;BME280;67902;52.154;5.430;2023-12-20T07:20:04;101526.34;;;7.23;100.00
70900;BME280;67902;52.154;5.430;2023-12-20T07:22:33;101527.78;;;7.25;100.00
70900;BME280;67902;52.154;5.430;2023-12-20T07:25:00;101525.09;;;7.25;100.00
70900;BME280;67902;52.154;5.430;2023-12-20T07:27:27;101528.00;;;7.24;100.00
70900;BME280;67902;52.154;5.430;2023-12-20T07:29:54;101529.44;;;7.26;100.00
70900;BME280;67902;52.154;5.430;2023-12-20T07:32:20;101519.50;;;7.27;100.00
70900;BME280;67902;52.154;5.430;2023-12-20T07:34:47;101529.84;;;7.30;100.00
70900;BME280;67902;52.154;5.430;2023-12-20T07:37:14;101516.38;;;7.30;100.00
70900;BME280;67902;52.154;5.430;2023-12-20T07:39:41;101510.59;;;7.33;100.00
70900;BME280;67902;52.154;5.430;2023-12-20T07:42:08;101509.56;;;7.34;100.00
70900;BME280;67902;52.154;5.430;2023-12-20T07:44:35;101518.66;;;7.33;100.00
70900;BME280;67902;52.154;5.430;2023-12-20T07:47:05;101522.19;;;7.33;100.00
70900;BME280;67902;52.154;5.430;2023-12-20T07:49:32;101527.81;;;7.32;100.00
70900;BME280;67902;52.154;5.430;2023-12-20T07:51:58;101526.56;;;7.34;100.00
70900;BME280;67902;52.154;5.430;2023-12-20T07:54:25;101533.41;;;7.37;100.00
70900;BME280;67902;52.154;5.430;2023-12-20T07:56:52;101537.13;;;7.36;100.00
70900;BME280;67902;52.154;5.430;2023-12-20T07:59:18;101538.16;;;7.35;100.00
70900;BME280;67902;52.154;5.430;2023-12-20T08:01:57;101544.41;;;7.35;100.00
70900;BME280;67902;52.154;5.430;2023-12-20T08:04:26;101534.00;;;7.39;100.00
70900;BME280;67902;52.154;5.430;2023-12-20T08:06:52;101548.94;;;7.41;100.00
70900;BME280;67902;52.154;5.430;2023-12-20T08:09:19;101558.69;;;7.42;100.00
70900;BME280;67902;52.154;5.430;2023-12-20T08:11:46;101563.84;;;7.44;100.00
70900;BME280;67902;52.154;5.430;2023-12-20T08:14:13;101558.47;;;7.44;100.00
70900;BME280;67902;52.154;5.430;2023-12-20T08:16:40;101558.06;;;7.47;100.00
70900;BME280;67902;52.154;5.430;2023-12-20T08:19:06;101562.41;;;7.48;100.00
70900;BME280;67902;52.154;5.430;2023-12-20T08:21:33;101555.78;;;7.50;100.00
70900;BME280;67902;52.154;5.430;2023-12-20T08:24:04;101544.81;;;7.52;100.00
70900;BME280;67902;52.154;5.430;2023-12-20T08:26:30;101555.38;;;7.53;100.00
70900;BME280;67902;52.154;5.430;2023-12-20T08:28:57;101550.81;;;7.54;100.00
70900;BME280;67902;52.154;5.430;2023-12-20T08:31:27;101548.13;;;7.54;100.00
70900;BME280;67902;52.154;5.430;2023-12-20T08:33:54;101540.66;;;7.56;100.00
70900;BME280;67902;52.154;5.430;2023-12-20T08:36:21;101543.97;;;7.58;100.00
70900;BME280;67902;52.154;5.430;2023-12-20T08:38:49;101533.19;;;7.58;99.90
70900;BME280;67902;52.154;5.430;2023-12-20T08:41:18;101533.00;;;7.59;100.00
70900;BME280;67902;52.154;5.430;2023-12-20T08:43:45;101538.16;;;7.61;99.52
70900;BME280;67902;52.154;5.430;2023-12-20T08:46:14;101543.56;;;7.61;100.00
70900;BME280;67902;52.154;5.430;2023-12-20T08:48:40;101534.44;;;7.62;99.63
70900;BME280;67902;52.154;5.430;2023-12-20T08:51:07;101529.06;;;7.62;100.00
70900;BME280;67902;52.154;5.430;2023-12-20T08:53:35;101533.19;;;7.58;100.00
70900;BME280;67902;52.154;5.430;2023-12-20T08:56:01;101536.94;;;7.57;100.00
70900;BME280;67902;52.154;5.430;2023-12-20T08:58:28;101537.13;;;7.55;100.00
70900;BME280;67902;52.154;5.430;2023-12-20T09:00:55;101536.31;;;7.55;100.00
70900;BME280;67902;52.154;5.430;2023-12-20T09:03:24;101542.13;;;7.52;100.00
70900;BME280;67902;52.154;5.430;2023-12-20T09:05:50;101539.84;;;7.49;100.00
70900;BME280;67902;52.154;5.430;2023-12-20T09:08:17;101541.09;;;7.46;100.00
70900;BME280;67902;52.154;5.430;2023-12-20T09:10:43;101541.88;;;7.47;100.00
70900;BME280;67902;52.154;5.430;2023-12-20T09:13:11;101537.16;;;7.49;100.00
70900;BME280;67902;52.154;5.430;2023-12-20T09:15:37;101532.16;;;7.46;100.00
70900;BME280;67902;52.154;5.430;2023-12-20T09:18:04;101544.81;;;7.45;100.00
70900;BME280;67902;52.154;5.430;2023-12-20T09:20:31;101529.47;;;7.46;100.00
70900;BME280;67902;52.154;5.430;2023-12-20T09:22:58;101527.63;;;7.46;100.00
70900;BME280;67902;52.154;5.430;2023-12-20T09:25:24;101535.47;;;7.48;100.00
70900;BME280;67902;52.154;5.430;2023-12-20T09:27:52;101534.03;;;7.52;100.00
70900;BME280;67902;52.154;5.430;2023-12-20T09:30:19;101536.31;;;7.55;100.00
70900;BME280;67902;52.154;5.430;2023-12-20T09:32:53;101530.72;;;7.56;100.00
70900;BME280;67902;52.154;5.430;2023-12-20T09:35:20;101530.72;;;7.63;100.00
70900;BME280;67902;52.154;5.430;2023-12-20T09:37:47;101539.00;;;7.68;100.00
70900;BME280;67902;52.154;5.430;2023-12-20T09:40:14;101524.28;;;7.71;100.00
70900;BME280;67902;52.154;5.430;2023-12-20T09:42:57;101534.84;;;7.79;100.00
70900;BME280;67902;52.154;5.430;2023-12-20T09:45:24;101543.97;;;7.84;100.00
70900;BME280;67902;52.154;5.430;2023-12-20T09:47:53;101536.50;;;7.86;100.00
70900;BME280;67902;52.154;5.430;2023-12-20T09:50:21;101537.53;;;7.92;100.00
70900;BME280;67902;52.154;5.430;2023-12-20T09:52:53;101545.59;;;7.98;100.00
70900;BME280;67902;52.154;5.430;2023-12-20T09:55:22;101534.00;;;8.04;100.00
70900;BME280;67902;52.154;5.430;2023-12-20T09:57:51;101538.53;;;8.10;100.00
70900;BME280;67902;52.154;5.430;2023-12-20T10:00:18;101532.09;;;8.11;100.00
70900;BME280;67902;52.154;5.430;2023-12-20T10:03:11;101541.44;;;8.15;100.00
70900;BME280;67902;52.154;5.430;2023-12-20T10:05:43;101547.03;;;8.21;100.00
70900;BME280;67902;52.154;5.430;2023-12-20T10:08:11;101545.56;;;8.25;99.95
70900;BME280;67902;52.154;5.430;2023-12-20T10:10:37;101553.44;;;8.26;99.79
70900;BME280;67902;52.154;5.430;2023-12-20T10:13:13;101550.34;;;8.29;100.00
70900;BME280;67902;52.154;5.430;2023-12-20T10:15:41;101555.13;;;8.27;98.97
70900;BME280;67902;52.154;5.430;2023-12-20T10:18:09;101557.19;;;8.25;99.79
70900;BME280;67902;52.154;5.430;2023-12-20T10:20:37;101553.66;;;8.25;99.38
70900;BME280;67902;52.154;5.430;2023-12-20T10:23:03;101556.38;;;8.25;99.61
70900;BME280;67902;52.154;5.430;2023-12-20T10:25:30;101548.28;;;8.25;99.13
70900;BME280;67902;52.154;5.430;2023-12-20T10:28:15;101545.97;;;8.28;99.65
70900;BME280;67902;52.154;5.430;2023-12-20T10:30:45;101530.22;;;8.32;99.90
70900;BME280;67902;52.154;5.430;2023-12-20T10:33:12;101534.75;;;8.44;99.37
70900;BME280;67902;52.154;5.430;2023-12-20T10:35:39;101535.94;;;8.55;99.29
70900;BME280;67902;52.154;5.430;2023-12-20T10:38:11;101532.81;;;8.64;98.32
70900;BME280;67902;52.154;5.430;2023-12-20T10:40:40;101538.81;;;8.60;97.30
70900;BME280;67902;52.154;5.430;2023-12-20T10:43:08;101535.28;;;8.59;97.59
70900;BME280;67902;52.154;5.430;2023-12-20T10:45:36;101521.28;;;8.82;96.72
70900;BME280;67902;52.154;5.430;2023-12-20T10:48:03;101515.59;;;9.77;94.46
70900;BME280;67902;52.154;5.430;2023-12-20T10:50:31;101519.97;;;10.39;87.25
70900;BME280;67902;52.154;5.430;2023-12-20T10:52:58;101511.19;;;10.26;88.50
70900;BME280;67902;52.154;5.430;2023-12-20T10:55:25;101512.28;;;9.75;89.55
70900;BME280;67902;52.154;5.430;2023-12-20T10:57:54;101513.91;;;9.58;89.65
70900;BME280;67902;52.154;5.430;2023-12-20T11:00:26;101514.97;;;10.00;89.88
70900;BME280;67902;52.154;5.430;2023-12-20T11:02:53;101506.22;;;9.80;90.20
70900;BME280;67902;52.154;5.430;2023-12-20T11:07:58;101523.69;;;9.59;88.87
70900;BME280;67902;52.154;5.430;2023-12-20T11:10:31;101507.69;;;9.26;90.76
70900;BME280;67902;52.154;5.430;2023-12-20T11:13:22;101504.03;;;9.46;90.93
70900;BME280;67902;52.154;5.430;2023-12-20T11:15:49;101501.47;;;10.36;90.89
70900;BME280;67902;52.154;5.430;2023-12-20T11:18:16;101499.44;;;13.00;76.38
70900;BME280;67902;52.154;5.430;2023-12-20T11:20:43;101499.44;;;12.32;77.51
70900;BME280;67902;52.154;5.430;2023-12-20T11:23:09;101493.19;;;12.71;73.84
70900;BME280;67902;52.154;5.430;2023-12-20T11:25:46;101482.66;;;11.19;79.02
70900;BME280;67902;52.154;5.430;2023-12-20T11:28:14;101483.44;;;10.30;83.19
70900;BME280;67902;52.154;5.430;2023-12-20T11:30:50;101477.53;;;9.97;85.73
70900;BME280;67902;52.154;5.430;2023-12-20T11:33:16;101480.09;;;9.92;86.16
70900;BME280;67902;52.154;5.430;2023-12-20T11:35:47;101470.78;;;10.06;86.43
70900;BME280;67902;52.154;5.430;2023-12-20T11:38:14;101480.13;;;10.28;86.46
70900;BME280;67902;52.154;5.430;2023-12-20T11:40:44;101481.81;;;10.77;83.69
70900;BME280;67902;52.154;5.430;2023-12-20T11:43:10;101468.25;;;10.29;84.73
70900;BME280;67902;52.154;5.430;2023-12-20T11:45:38;101468.31;;;10.05;86.31
70900;BME280;67902;52.154;5.430;2023-12-20T11:48:15;101466.63;;;9.85;86.58
70900;BME280;67902;52.154;5.430;2023-12-20T11:50:41;101458.91;;;9.89;86.84
70900;BME280;67902;52.154;5.430;2023-12-20T11:53:10;101458.44;;;9.92;87.93
70900;BME280;67902;52.154;5.430;2023-12-20T11:55:36;101442.69;;;10.25;86.18
70900;BME280;67902;52.154;5.430;2023-12-20T11:58:03;101436.81;;;10.28;86.71
70900;BME280;67902;52.154;5.430;2023-12-20T12:00:30;101450.56;;;10.45;85.85
70900;BME280;67902;52.154;5.430;2023-12-20T12:02:57;101445.28;;;11.21;83.25
70900;BME280;67902;52.154;5.430;2023-12-20T12:05:24;101443.66;;;12.41;76.70
70900;BME280;67902;52.154;5.430;2023-12-20T12:07:52;101449.97;;;11.02;80.26
70900;BME280;67902;52.154;5.430;2023-12-20T12:10:19;101439.53;;;10.28;82.19
70900;BME280;67902;52.154;5.430;2023-12-20T12:12:46;101452.19;;;9.91;85.17
70900;BME280;67902;52.154;5.430;2023-12-20T12:15:14;101461.50;;;9.77;85.76
70900;BME280;67902;52.154;5.430;2023-12-20T12:17:41;101473.16;;;9.78;86.78
70900;BME280;67902;52.154;5.430;2023-12-20T12:20:07;101463.22;;;9.72;87.06
70900;BME280;67902;52.154;5.430;2023-12-20T12:22:36;101470.63;;;9.58;86.72
70900;BME280;67902;52.154;5.430;2023-12-20T12:25:10;101459.09;;;9.69;87.63
70900;BME280;67902;52.154;5.430;2023-12-20T12:27:41;101455.00;;;9.85;87.01
70900;BME280;67902;52.154;5.430;2023-12-20T12:30:09;101446.66;;;9.86;86.70
70900;BME280;67902;52.154;5.430;2023-12-20T12:32:36;101433.41;;;9.97;87.33
70900;BME280;67902;52.154;5.430;2023-12-20T12:35:04;101435.22;;;9.84;86.51
70900;BME280;67902;52.154;5.430;2023-12-20T12:37:37;101420.34;;;9.75;87.41
70900;BME280;67902;52.154;5.430;2023-12-20T12:40:16;101430.41;;;9.68;87.35
70900;BME280;67902;52.154;5.430;2023-12-20T12:42:44;101434.59;;;9.64;87.98
70900;BME280;67902;52.154;5.430;2023-12-20T12:45:11;101425.97;;;9.56;87.56
70900;BME280;67902;52.154;5.430;2023-12-20T12:47:39;101412.72;;;9.48;89.07
70900;BME280;67902;52.154;5.430;2023-12-20T12:50:06;101416.91;;;9.44;89.15
70900;BME280;67902;52.154;5.430;2023-12-20T12:52:33;101421.72;;;9.42;90.21
70900;BME280;67902;52.154;5.430;2023-12-20T12:54:59;101420.50;;;9.38;90.09
70900;BME280;67902;52.154;5.430;2023-12-20T12:57:26;101418.72;;;9.31;90.99